sensor_id;sensor_type;location;lat;lon;timestamp;P1;durP1;ratioP1;P2;durP2;ratioP2
24163;SDS011;12319;49.204;8.116;2023-07-29T00:01:05;4.80;;;3.90;;
24163;SDS011;12319;49.204;8.116;2023-07-29T00:03:30;6.13;;;3.53;;
24163;SDS011;12319;49.204;8.116;2023-07-29T00:05:57;6.07;;;3.90;;
24163;SDS011;12319;49.204;8.116;2023-07-29T00:08:22;6.90;;;4.00;;
24163;SDS011;12319;49.204;8.116;2023-07-29T00:10:48;5.87;;;4.30;;
24163;SDS011;12319;49.204;8.116;2023-07-29T00:13:13;5.00;;;4.30;;
24163;SDS011;12319;49.204;8.116;2023-07-29T00:15:39;5.40;;;3.85;;
24163;SDS011;12319;49.204;8.116;2023-07-29T00:18:05;5.10;;;3.90;;
24163;SDS011;12319;49.204;8.116;2023-07-29T00:20:30;4.70;;;3.90;;
24163;SDS011;12319;49.204;8.116;2023-07-29T00:22:56;4.73;;;3.57;;
24163;SDS011;12319;49.204;8.116;2023-07-29T00:25:23;5.00;;;3.88;;
24163;SDS011;12319;49.204;8.116;2023-07-29T00:27:48;5.00;;;3.73;;
24163;SDS011;12319;49.204;8.116;2023-07-29T00:30:14;6.90;;;3.97;;
24163;SDS011;12319;49.204;8.116;2023-07-29T00:32:39;4.72;;;3.83;;
24163;SDS011;12319;49.204;8.116;2023-07-29T00:35:05;5.10;;;4.10;;
24163;SDS011;12319;49.204;8.116;2023-07-29T00:37:31;5.30;;;4.10;;
24163;SDS011;12319;49.204;8.116;2023-07-29T00:39:57;5.10;;;4.10;;
24163;SDS011;12319;49.204;8.116;2023-07-29T00:42:23;5.40;;;4.00;;
24163;SDS011;12319;49.204;8.116;2023-07-29T00:44:49;4.70;;;3.80;;
24163;SDS011;12319;49.204;8.116;2023-07-29T00:47:14;4.90;;;3.80;;
24163;SDS011;12319;49.204;8.116;2023-07-29T00:49:41;4.80;;;4.00;;
24163;SDS011;12319;49.204;8.116;2023-07-29T00:52:10;5.30;;;4.00;;
24163;SDS011;12319;49.204;8.116;2023-07-29T00:54:37;5.35;;;3.90;;
24163;SDS011;12319;49.204;8.116;2023-07-29T00:57:05;4.60;;;3.75;;
24163;SDS011;12319;49.204;8.116;2023-07-29T00:59:33;4.97;;;3.70;;
24163;SDS011;12319;49.204;8.116;2023-07-29T01:02:00;5.20;;;3.97;;
24163;SDS011;12319;49.204;8.116;2023-07-29T01:04:26;4.90;;;4.10;;
24163;SDS011;12319;49.204;8.116;2023-07-29T01:12:19;4.93;;;3.90;;
24163;SDS011;12319;49.204;8.116;2023-07-29T01:14:59;5.40;;;4.10;;
24163;SDS011;12319;49.204;8.116;2023-07-29T01:17:59;4.88;;;4.05;;
24163;SDS011;12319;49.204;8.116;2023-07-29T01:20:29;4.93;;;4.07;;
24163;SDS011;12319;49.204;8.116;2023-07-29T01:23:02;5.22;;;3.90;;
24163;SDS011;12319;49.204;8.116;2023-07-29T01:25:28;5.10;;;4.10;;
24163;SDS011;12319;49.204;8.116;2023-07-29T01:27:53;4.68;;;3.47;;
24163;SDS011;12319;49.204;8.116;2023-07-29T01:30:20;4.97;;;3.95;;
24163;SDS011;12319;49.204;8.116;2023-07-29T01:32:54;5.00;;;3.70;;
24163;SDS011;12319;49.204;8.116;2023-07-29T01:35:42;4.78;;;3.60;;
24163;SDS011;12319;49.204;8.116;2023-07-29T01:38:13;4.82;;;3.88;;
24163;SDS011;12319;49.204;8.116;2023-07-29T01:40:43;5.03;;;3.80;;
24163;SDS011;12319;49.204;8.116;2023-07-29T01:43:10;6.45;;;3.95;;
24163;SDS011;12319;49.204;8.116;2023-07-29T01:45:36;5.70;;;3.95;;
24163;SDS011;12319;49.204;8.116;2023-07-29T01:48:06;4.63;;;3.70;;
24163;SDS011;12319;49.204;8.116;2023-07-29T01:50:32;4.80;;;3.90;;
24163;SDS011;12319;49.204;8.116;2023-07-29T01:52:58;5.00;;;4.10;;
24163;SDS011;12319;49.204;8.116;2023-07-29T01:55:24;6.75;;;3.60;;
24163;SDS011;12319;49.204;8.116;2023-07-29T01:57:49;4.50;;;3.40;;
24163;SDS011;12319;49.204;8.116;2023-07-29T02:00:16;4.68;;;3.72;;
24163;SDS011;12319;49.204;8.116;2023-07-29T02:02:43;4.57;;;3.67;;
24163;SDS011;12319;49.204;8.116;2023-07-29T02:05:08;5.13;;;3.83;;
24163;SDS011;12319;49.204;8.116;2023-07-29T02:07:34;5.10;;;3.87;;
24163;SDS011;12319;49.204;8.116;2023-07-29T02:09:59;4.97;;;3.80;;
24163;SDS011;12319;49.204;8.116;2023-07-29T02:12:25;4.73;;;3.87;;
24163;SDS011;12319;49.204;8.116;2023-07-29T02:14:50;4.70;;;3.83;;
24163;SDS011;12319;49.204;8.116;2023-07-29T02:17:16;5.10;;;3.90;;
24163;SDS011;12319;49.204;8.116;2023-07-29T02:19:42;4.90;;;3.77;;
24163;SDS011;12319;49.204;8.116;2023-07-29T02:22:07;5.00;;;3.72;;
24163;SDS011;12319;49.204;8.116;2023-07-29T02:24:33;4.77;;;3.97;;
24163;SDS011;12319;49.204;8.116;2023-07-29T02:26:58;5.40;;;4.17;;
24163;SDS011;12319;49.204;8.116;2023-07-29T02:29:24;5.05;;;4.00;;
24163;SDS011;12319;49.204;8.116;2023-07-29T02:31:50;4.80;;;3.60;;
24163;SDS011;12319;49.204;8.116;2023-07-29T02:34:15;4.70;;;3.90;;
24163;SDS011;12319;49.204;8.116;2023-07-29T02:36:41;5.00;;;3.90;;
24163;SDS011;12319;49.204;8.116;2023-07-29T02:39:07;5.50;;;4.10;;
24163;SDS011;12319;49.204;8.116;2023-07-29T02:41:32;5.93;;;3.90;;
24163;SDS011;12319;49.204;8.116;2023-07-29T02:43:58;5.40;;;4.10;;
24163;SDS011;12319;49.204;8.116;2023-07-29T02:46:23;4.85;;;3.78;;
24163;SDS011;12319;49.204;8.116;2023-07-29T02:48:49;5.27;;;3.97;;
24163;SDS011;12319;49.204;8.116;2023-07-29T02:51:15;5.07;;;3.83;;
24163;SDS011;12319;49.204;8.116;2023-07-29T02:53:41;8.17;;;4.10;;
24163;SDS011;12319;49.204;8.116;2023-07-29T02:56:06;5.00;;;4.07;;
24163;SDS011;12319;49.204;8.116;2023-07-29T02:58:34;5.07;;;3.95;;
24163;SDS011;12319;49.204;8.116;2023-07-29T03:01:00;5.45;;;4.00;;
24163;SDS011;12319;49.204;8.116;2023-07-29T03:03:27;5.32;;;3.80;;
24163;SDS011;12319;49.204;8.116;2023-07-29T03:05:59;5.17;;;3.90;;
24163;SDS011;12319;49.204;8.116;2023-07-29T03:08:26;4.80;;;3.90;;
24163;SDS011;12319;49.204;8.116;2023-07-29T03:10:51;4.80;;;3.93;;
24163;SDS011;12319;49.204;8.116;2023-07-29T03:13:17;4.70;;;3.80;;
24163;SDS011;12319;49.204;8.116;2023-07-29T03:15:42;4.78;;;3.80;;
24163;SDS011;12319;49.204;8.116;2023-07-29T03:18:08;5.10;;;3.70;;
24163;SDS011;12319;49.204;8.116;2023-07-29T03:20:33;5.07;;;3.70;;
24163;SDS011;12319;49.204;8.116;2023-07-29T03:22:59;4.90;;;3.70;;
24163;SDS011;12319;49.204;8.116;2023-07-29T03:25:24;8.75;;;3.85;;
24163;SDS011;12319;49.204;8.116;2023-07-29T03:27:50;7.57;;;3.80;;
24163;SDS011;12319;49.204;8.116;2023-07-29T03:30:18;4.97;;;3.80;;
24163;SDS011;12319;49.204;8.116;2023-07-29T03:32:44;5.40;;;3.72;;
24163;SDS011;12319;49.204;8.116;2023-07-29T03:35:10;4.82;;;3.90;;
24163;SDS011;12319;49.204;8.116;2023-07-29T03:37:36;4.75;;;3.83;;
24163;SDS011;12319;49.204;8.116;2023-07-29T03:40:02;5.32;;;3.88;;
24163;SDS011;12319;49.204;8.116;2023-07-29T03:42:28;4.90;;;3.57;;
24163;SDS011;12319;49.204;8.116;2023-07-29T03:44:53;5.20;;;3.70;;
24163;SDS011;12319;49.204;8.116;2023-07-29T03:47:19;5.03;;;4.17;;
24163;SDS011;12319;49.204;8.116;2023-07-29T03:49:44;4.70;;;3.85;;
24163;SDS011;12319;49.204;8.116;2023-07-29T03:52:10;4.90;;;3.80;;
24163;SDS011;12319;49.204;8.116;2023-07-29T03:54:35;5.60;;;4.10;;
24163;SDS011;12319;49.204;8.116;2023-07-29T03:57:01;4.87;;;3.83;;
24163;SDS011;12319;49.204;8.116;2023-07-29T03:59:26;4.97;;;4.18;;
24163;SDS011;12319;49.204;8.116;2023-07-29T04:01:52;5.17;;;4.07;;
24163;SDS011;12319;49.204;8.116;2023-07-29T04:04:18;4.90;;;3.60;;
24163;SDS011;12319;49.204;8.116;2023-07-29T04:06:44;4.87;;;4.03;;
24163;SDS011;12319;49.204;8.116;2023-07-29T04:09:09;4.90;;;4.07;;
24163;SDS011;12319;49.204;8.116;2023-07-29T04:11:35;7.53;;;4.00;;
24163;SDS011;12319;49.204;8.116;2023-07-29T04:14:00;4.93;;;3.83;;
24163;SDS011;12319;49.204;8.116;2023-07-29T04:16:26;5.22;;;3.75;;
24163;SDS011;12319;49.204;8.116;2023-07-29T04:18:53;5.38;;;4.13;;
24163;SDS011;12319;49.204;8.116;2023-07-29T04:21:19;5.50;;;4.40;;
24163;SDS011;12319;49.204;8.116;2023-07-29T04:23:44;5.00;;;4.17;;
24163;SDS011;12319;49.204;8.116;2023-07-29T04:26:10;5.10;;;4.10;;
24163;SDS011;12319;49.204;8.116;2023-07-29T04:28:35;5.20;;;4.00;;
24163;SDS011;12319;49.204;8.116;2023-07-29T04:31:01;5.37;;;4.50;;
24163;SDS011;12319;49.204;8.116;2023-07-29T04:33:26;5.75;;;4.50;;
24163;SDS011;12319;49.204;8.116;2023-07-29T04:35:54;6.63;;;3.88;;
24163;SDS011;12319;49.204;8.116;2023-07-29T04:38:20;6.53;;;4.03;;
24163;SDS011;12319;49.204;8.116;2023-07-29T04:40:45;4.70;;;3.83;;
24163;SDS011;12319;49.204;8.116;2023-07-29T04:43:10;5.25;;;4.20;;
24163;SDS011;12319;49.204;8.116;2023-07-29T04:45:36;4.97;;;4.17;;
24163;SDS011;12319;49.204;8.116;2023-07-29T04:48:07;5.18;;;4.00;;
24163;SDS011;12319;49.204;8.116;2023-07-29T04:50:33;4.90;;;4.03;;
24163;SDS011;12319;49.204;8.116;2023-07-29T04:52:58;4.90;;;4.10;;
24163;SDS011;12319;49.204;8.116;2023-07-29T04:55:24;5.13;;;4.30;;
24163;SDS011;12319;49.204;8.116;2023-07-29T04:57:49;5.03;;;3.80;;
24163;SDS011;12319;49.204;8.116;2023-07-29T05:00:15;5.50;;;4.30;;
24163;SDS011;12319;49.204;8.116;2023-07-29T05:02:41;5.47;;;4.47;;
24163;SDS011;12319;49.204;8.116;2023-07-29T05:05:07;6.10;;;4.10;;
24163;SDS011;12319;49.204;8.116;2023-07-29T05:07:33;5.10;;;4.40;;
24163;SDS011;12319;49.204;8.116;2023-07-29T05:09:58;4.90;;;4.00;;
24163;SDS011;12319;49.204;8.116;2023-07-29T05:12:24;5.50;;;4.20;;
24163;SDS011;12319;49.204;8.116;2023-07-29T05:14:49;5.83;;;4.20;;
24163;SDS011;12319;49.204;8.116;2023-07-29T05:17:15;8.10;;;4.40;;
24163;SDS011;12319;49.204;8.116;2023-07-29T05:19:40;5.60;;;4.25;;
24163;SDS011;12319;49.204;8.116;2023-07-29T05:22:06;5.40;;;4.43;;
24163;SDS011;12319;49.204;8.116;2023-07-29T05:24:31;7.07;;;4.77;;
24163;SDS011;12319;49.204;8.116;2023-07-29T05:26:57;5.55;;;4.30;;
24163;SDS011;12319;49.204;8.116;2023-07-29T05:29:22;5.57;;;4.47;;
24163;SDS011;12319;49.204;8.116;2023-07-29T05:31:48;5.40;;;4.45;;
24163;SDS011;12319;49.204;8.116;2023-07-29T05:34:14;5.20;;;4.40;;
24163;SDS011;12319;49.204;8.116;2023-07-29T05:36:39;5.10;;;4.40;;
24163;SDS011;12319;49.204;8.116;2023-07-29T05:39:05;5.72;;;4.47;;
24163;SDS011;12319;49.204;8.116;2023-07-29T05:41:30;5.10;;;4.40;;
24163;SDS011;12319;49.204;8.116;2023-07-29T05:43:56;5.22;;;4.22;;
24163;SDS011;12319;49.204;8.116;2023-07-29T05:46:22;5.00;;;4.40;;
24163;SDS011;12319;49.204;8.116;2023-07-29T05:48:47;5.30;;;4.57;;
24163;SDS011;12319;49.204;8.116;2023-07-29T05:51:13;5.53;;;4.30;;
24163;SDS011;12319;49.204;8.116;2023-07-29T05:53:38;5.37;;;4.40;;
24163;SDS011;12319;49.204;8.116;2023-07-29T05:56:04;5.07;;;4.07;;
24163;SDS011;12319;49.204;8.116;2023-07-29T05:58:29;5.10;;;4.35;;
24163;SDS011;12319;49.204;8.116;2023-07-29T06:00:56;5.40;;;4.60;;
24163;SDS011;12319;49.204;8.116;2023-07-29T06:03:22;5.30;;;4.60;;
24163;SDS011;12319;49.204;8.116;2023-07-29T06:05:48;5.75;;;4.53;;
24163;SDS011;12319;49.204;8.116;2023-07-29T06:08:14;5.30;;;4.40;;
24163;SDS011;12319;49.204;8.116;2023-07-29T06:10:39;5.15;;;4.18;;
24163;SDS011;12319;49.204;8.116;2023-07-29T06:13:05;5.57;;;4.50;;
24163;SDS011;12319;49.204;8.116;2023-07-29T06:15:31;5.40;;;4.18;;
24163;SDS011;12319;49.204;8.116;2023-07-29T06:17:56;5.30;;;4.50;;
24163;SDS011;12319;49.204;8.116;2023-07-29T06:20:22;5.23;;;4.40;;
24163;SDS011;12319;49.204;8.116;2023-07-29T06:22:47;5.50;;;4.43;;
24163;SDS011;12319;49.204;8.116;2023-07-29T06:25:13;5.00;;;4.20;;
24163;SDS011;12319;49.204;8.116;2023-07-29T06:27:38;5.20;;;4.45;;
24163;SDS011;12319;49.204;8.116;2023-07-29T06:30:04;5.10;;;4.40;;
24163;SDS011;12319;49.204;8.116;2023-07-29T06:32:31;5.18;;;4.45;;
24163;SDS011;12319;49.204;8.116;2023-07-29T06:34:56;5.30;;;4.77;;
24163;SDS011;12319;49.204;8.116;2023-07-29T06:37:22;5.25;;;4.65;;
24163;SDS011;12319;49.204;8.116;2023-07-29T06:39:48;7.80;;;4.43;;
24163;SDS011;12319;49.204;8.116;2023-07-29T06:42:13;5.47;;;4.20;;
24163;SDS011;12319;49.204;8.116;2023-07-29T06:44:39;5.13;;;4.38;;
24163;SDS011;12319;49.204;8.116;2023-07-29T06:47:05;5.30;;;4.40;;
24163;SDS011;12319;49.204;8.116;2023-07-29T06:49:31;5.05;;;4.30;;
24163;SDS011;12319;49.204;8.116;2023-07-29T06:51:56;5.03;;;4.30;;
24163;SDS011;12319;49.204;8.116;2023-07-29T06:54:25;5.38;;;4.15;;
24163;SDS011;12319;49.204;8.116;2023-07-29T06:56:53;5.20;;;4.50;;
24163;SDS011;12319;49.204;8.116;2023-07-29T06:59:19;6.60;;;4.00;;
24163;SDS011;12319;49.204;8.116;2023-07-29T07:01:45;4.90;;;4.30;;
24163;SDS011;12319;49.204;8.116;2023-07-29T07:04:11;5.30;;;4.65;;
24163;SDS011;12319;49.204;8.116;2023-07-29T07:06:36;5.30;;;4.40;;
24163;SDS011;12319;49.204;8.116;2023-07-29T07:09:02;5.10;;;4.07;;
24163;SDS011;12319;49.204;8.116;2023-07-29T07:11:27;6.07;;;4.37;;
24163;SDS011;12319;49.204;8.116;2023-07-29T07:13:53;5.00;;;4.10;;
24163;SDS011;12319;49.204;8.116;2023-07-29T07:16:19;5.22;;;4.00;;
24163;SDS011;12319;49.204;8.116;2023-07-29T07:18:44;5.63;;;4.25;;
24163;SDS011;12319;49.204;8.116;2023-07-29T07:21:10;5.20;;;4.00;;
24163;SDS011;12319;49.204;8.116;2023-07-29T07:23:36;5.00;;;4.30;;
24163;SDS011;12319;49.204;8.116;2023-07-29T07:26:01;4.85;;;3.95;;
24163;SDS011;12319;49.204;8.116;2023-07-29T07:28:27;4.90;;;4.10;;
24163;SDS011;12319;49.204;8.116;2023-07-29T07:30:53;6.65;;;4.40;;
24163;SDS011;12319;49.204;8.116;2023-07-29T07:33:20;4.90;;;4.30;;
24163;SDS011;12319;49.204;8.116;2023-07-29T07:35:46;5.37;;;4.40;;
24163;SDS011;12319;49.204;8.116;2023-07-29T07:38:12;5.10;;;4.40;;
24163;SDS011;12319;49.204;8.116;2023-07-29T07:40:37;5.07;;;4.40;;
24163;SDS011;12319;49.204;8.116;2023-07-29T07:43:03;4.87;;;4.07;;
24163;SDS011;12319;49.204;8.116;2023-07-29T07:45:28;5.00;;;4.22;;
24163;SDS011;12319;49.204;8.116;2023-07-29T07:47:54;5.28;;;4.60;;
24163;SDS011;12319;49.204;8.116;2023-07-29T07:50:19;4.80;;;4.10;;
24163;SDS011;12319;49.204;8.116;2023-07-29T07:52:45;5.05;;;4.50;;
24163;SDS011;12319;49.204;8.116;2023-07-29T07:55:11;5.00;;;4.00;;
24163;SDS011;12319;49.204;8.116;2023-07-29T07:57:36;5.10;;;3.90;;
24163;SDS011;12319;49.204;8.116;2023-07-29T08:00:02;5.78;;;4.15;;
24163;SDS011;12319;49.204;8.116;2023-07-29T08:02:29;4.90;;;4.00;;
24163;SDS011;12319;49.204;8.116;2023-07-29T08:04:55;5.13;;;4.10;;
24163;SDS011;12319;49.204;8.116;2023-07-29T08:07:20;6.22;;;4.20;;
24163;SDS011;12319;49.204;8.116;2023-07-29T08:09:46;4.80;;;4.00;;
24163;SDS011;12319;49.204;8.116;2023-07-29T08:12:11;5.10;;;4.00;;
24163;SDS011;12319;49.204;8.116;2023-07-29T08:14:37;4.80;;;3.95;;
24163;SDS011;12319;49.204;8.116;2023-07-29T08:17:02;4.80;;;3.83;;
24163;SDS011;12319;49.204;8.116;2023-07-29T08:19:28;4.70;;;3.73;;
24163;SDS011;12319;49.204;8.116;2023-07-29T08:21:54;4.90;;;4.05;;
24163;SDS011;12319;49.204;8.116;2023-07-29T08:24:19;6.60;;;4.57;;
24163;SDS011;12319;49.204;8.116;2023-07-29T08:26:45;5.83;;;4.17;;
24163;SDS011;12319;49.204;8.116;2023-07-29T08:29:10;4.60;;;3.47;;
24163;SDS011;12319;49.204;8.116;2023-07-29T08:31:37;5.97;;;3.78;;
24163;SDS011;12319;49.204;8.116;2023-07-29T08:34:02;4.93;;;3.90;;
24163;SDS011;12319;49.204;8.116;2023-07-29T08:36:28;5.15;;;3.67;;
24163;SDS011;12319;49.204;8.116;2023-07-29T08:38:53;6.22;;;3.92;;
24163;SDS011;12319;49.204;8.116;2023-07-29T08:41:20;4.80;;;3.50;;
24163;SDS011;12319;49.204;8.116;2023-07-29T08:46:25;4.60;;;3.60;;
24163;SDS011;12319;49.204;8.116;2023-07-29T08:48:51;5.07;;;3.67;;
24163;SDS011;12319;49.204;8.116;2023-07-29T08:51:17;4.50;;;3.35;;
24163;SDS011;12319;49.204;8.116;2023-07-29T08:53:45;5.00;;;3.70;;
24163;SDS011;12319;49.204;8.116;2023-07-29T08:56:11;4.90;;;3.85;;
24163;SDS011;12319;49.204;8.116;2023-07-29T08:58:37;5.60;;;4.00;;
24163;SDS011;12319;49.204;8.116;2023-07-29T09:01:04;4.80;;;3.90;;
24163;SDS011;12319;49.204;8.116;2023-07-29T09:03:30;4.90;;;3.80;;
24163;SDS011;12319;49.204;8.116;2023-07-29T09:05:56;5.32;;;3.80;;
24163;SDS011;12319;49.204;8.116;2023-07-29T09:08:23;4.77;;;3.73;;
24163;SDS011;12319;49.204;8.116;2023-07-29T09:10:53;4.63;;;3.70;;
24163;SDS011;12319;49.204;8.116;2023-07-29T09:13:20;5.00;;;4.13;;
24163;SDS011;12319;49.204;8.116;2023-07-29T09:15:46;5.05;;;4.13;;
24163;SDS011;12319;49.204;8.116;2023-07-29T09:18:14;6.05;;;4.30;;
24163;SDS011;12319;49.204;8.116;2023-07-29T09:20:41;5.18;;;3.65;;
24163;SDS011;12319;49.204;8.116;2023-07-29T09:23:08;5.72;;;3.58;;
24163;SDS011;12319;49.204;8.116;2023-07-29T09:25:37;5.10;;;3.50;;
24163;SDS011;12319;49.204;8.116;2023-07-29T09:28:11;4.63;;;3.47;;
24163;SDS011;12319;49.204;8.116;2023-07-29T09:30:41;5.70;;;3.72;;
24163;SDS011;12319;49.204;8.116;2023-07-29T09:33:11;5.20;;;3.67;;
24163;SDS011;12319;49.204;8.116;2023-07-29T09:35:37;5.00;;;3.90;;
24163;SDS011;12319;49.204;8.116;2023-07-29T09:38:03;5.97;;;3.75;;
24163;SDS011;12319;49.204;8.116;2023-07-29T09:40:39;5.10;;;3.87;;
24163;SDS011;12319;49.204;8.116;2023-07-29T09:43:06;4.90;;;3.60;;
24163;SDS011;12319;49.204;8.116;2023-07-29T09:45:35;5.40;;;4.10;;
24163;SDS011;12319;49.204;8.116;2023-07-29T09:48:02;6.28;;;3.72;;
24163;SDS011;12319;49.204;8.116;2023-07-29T09:50:29;4.80;;;4.00;;
24163;SDS011;12319;49.204;8.116;2023-07-29T09:52:56;4.70;;;3.73;;
24163;SDS011;12319;49.204;8.116;2023-07-29T09:55:25;5.28;;;3.97;;
24163;SDS011;12319;49.204;8.116;2023-07-29T09:57:56;5.28;;;4.60;;
24163;SDS011;12319;49.204;8.116;2023-07-29T10:00:23;5.13;;;4.05;;
24163;SDS011;12319;49.204;8.116;2023-07-29T10:02:48;5.33;;;4.47;;
24163;SDS011;12319;49.204;8.116;2023-07-29T10:05:14;5.20;;;4.40;;
24163;SDS011;12319;49.204;8.116;2023-07-29T10:07:40;5.23;;;3.83;;
24163;SDS011;12319;49.204;8.116;2023-07-29T10:10:06;5.13;;;4.03;;
24163;SDS011;12319;49.204;8.116;2023-07-29T10:12:33;4.85;;;4.13;;
24163;SDS011;12319;49.204;8.116;2023-07-29T10:15:00;4.85;;;4.13;;
24163;SDS011;12319;49.204;8.116;2023-07-29T10:17:31;5.35;;;4.25;;
24163;SDS011;12319;49.204;8.116;2023-07-29T10:19:59;4.88;;;4.07;;
24163;SDS011;12319;49.204;8.116;2023-07-29T10:22:31;5.20;;;4.10;;
24163;SDS011;12319;49.204;8.116;2023-07-29T10:25:05;5.07;;;4.25;;
24163;SDS011;12319;49.204;8.116;2023-07-29T10:28:15;5.10;;;4.18;;
24163;SDS011;12319;49.204;8.116;2023-07-29T10:30:25;5.10;;;4.22;;
24163;SDS011;12319;49.204;8.116;2023-07-29T10:32:53;7.07;;;4.50;;
24163;SDS011;12319;49.204;8.116;2023-07-29T10:35:23;5.80;;;4.45;;
24163;SDS011;12319;49.204;8.116;2023-07-29T10:37:50;5.05;;;4.25;;
24163;SDS011;12319;49.204;8.116;2023-07-29T10:40:18;5.57;;;4.18;;
24163;SDS011;12319;49.204;8.116;2023-07-29T10:45:27;5.60;;;4.68;;
24163;SDS011;12319;49.204;8.116;2023-07-29T10:50:37;5.65;;;4.40;;
24163;SDS011;12319;49.204;8.116;2023-07-29T10:53:02;5.32;;;4.40;;
24163;SDS011;12319;49.204;8.116;2023-07-29T10:55:29;4.80;;;3.97;;
24163;SDS011;12319;49.204;8.116;2023-07-29T10:58:07;5.03;;;3.90;;
24163;SDS011;12319;49.204;8.116;2023-07-29T11:00:36;5.30;;;4.15;;
24163;SDS011;12319;49.204;8.116;2023-07-29T11:03:04;4.70;;;3.85;;
24163;SDS011;12319;49.204;8.116;2023-07-29T11:05:48;4.93;;;4.20;;
24163;SDS011;12319;49.204;8.116;2023-07-29T11:08:19;5.00;;;4.10;;
24163;SDS011;12319;49.204;8.116;2023-07-29T11:13:33;5.28;;;3.97;;
24163;SDS011;12319;49.204;8.116;2023-07-29T11:16:00;4.70;;;3.60;;
24163;SDS011;12319;49.204;8.116;2023-07-29T11:18:30;5.00;;;4.00;;
24163;SDS011;12319;49.204;8.116;2023-07-29T11:20:58;4.87;;;3.70;;
24163;SDS011;12319;49.204;8.116;2023-07-29T11:23:32;4.97;;;4.10;;
24163;SDS011;12319;49.204;8.116;2023-07-29T11:25:59;5.25;;;4.40;;
24163;SDS011;12319;49.204;8.116;2023-07-29T11:28:26;5.22;;;4.40;;
24163;SDS011;12319;49.204;8.116;2023-07-29T11:30:53;5.10;;;4.30;;
24163;SDS011;12319;49.204;8.116;2023-07-29T11:33:24;5.77;;;4.20;;
24163;SDS011;12319;49.204;8.116;2023-07-29T11:35:50;5.65;;;4.05;;
24163;SDS011;12319;49.204;8.116;2023-07-29T11:38:17;5.30;;;4.40;;
24163;SDS011;12319;49.204;8.116;2023-07-29T11:40:53;5.63;;;4.45;;
24163;SDS011;12319;49.204;8.116;2023-07-29T11:43:19;6.65;;;3.85;;
24163;SDS011;12319;49.204;8.116;2023-07-29T11:45:45;5.30;;;4.45;;
24163;SDS011;12319;49.204;8.116;2023-07-29T11:48:10;5.10;;;4.23;;
24163;SDS011;12319;49.204;8.116;2023-07-29T11:50:36;4.60;;;3.60;;
24163;SDS011;12319;49.204;8.116;2023-07-29T11:53:02;5.10;;;4.10;;
24163;SDS011;12319;49.204;8.116;2023-07-29T11:55:28;4.80;;;3.95;;
24163;SDS011;12319;49.204;8.116;2023-07-29T11:57:54;5.83;;;4.50;;
24163;SDS011;12319;49.204;8.116;2023-07-29T12:00:20;4.80;;;4.00;;
24163;SDS011;12319;49.204;8.116;2023-07-29T12:02:47;5.00;;;4.10;;
24163;SDS011;12319;49.204;8.116;2023-07-29T12:05:14;4.90;;;4.30;;
24163;SDS011;12319;49.204;8.116;2023-07-29T12:07:41;5.80;;;4.80;;
24163;SDS011;12319;49.204;8.116;2023-07-29T12:10:08;5.23;;;4.37;;
24163;SDS011;12319;49.204;8.116;2023-07-29T12:12:44;5.03;;;4.00;;
24163;SDS011;12319;49.204;8.116;2023-07-29T12:15:22;5.03;;;4.20;;
24163;SDS011;12319;49.204;8.116;2023-07-29T12:17:52;6.65;;;4.88;;
24163;SDS011;12319;49.204;8.116;2023-07-29T12:20:21;5.00;;;4.40;;
24163;SDS011;12319;49.204;8.116;2023-07-29T12:22:57;5.87;;;4.77;;
24163;SDS011;12319;49.204;8.116;2023-07-29T12:25:27;5.97;;;4.28;;
24163;SDS011;12319;49.204;8.116;2023-07-29T12:27:53;6.47;;;4.13;;
24163;SDS011;12319;49.204;8.116;2023-07-29T12:30:22;4.80;;;3.90;;
24163;SDS011;12319;49.204;8.116;2023-07-29T12:32:49;5.22;;;4.55;;
24163;SDS011;12319;49.204;8.116;2023-07-29T12:35:15;5.00;;;4.50;;
24163;SDS011;12319;49.204;8.116;2023-07-29T12:37:41;5.40;;;4.32;;
24163;SDS011;12319;49.204;8.116;2023-07-29T12:40:29;5.47;;;4.40;;
24163;SDS011;12319;49.204;8.116;2023-07-29T12:42:54;5.50;;;4.30;;
24163;SDS011;12319;49.204;8.116;2023-07-29T12:45:21;6.10;;;4.55;;
24163;SDS011;12319;49.204;8.116;2023-07-29T12:47:51;5.15;;;4.28;;
24163;SDS011;12319;49.204;8.116;2023-07-29T12:50:16;5.00;;;4.20;;
24163;SDS011;12319;49.204;8.116;2023-07-29T12:52:42;5.32;;;4.22;;
24163;SDS011;12319;49.204;8.116;2023-07-29T12:55:08;5.20;;;4.60;;
24163;SDS011;12319;49.204;8.116;2023-07-29T12:57:37;5.25;;;4.32;;
24163;SDS011;12319;49.204;8.116;2023-07-29T13:00:04;5.53;;;4.40;;
24163;SDS011;12319;49.204;8.116;2023-07-29T13:02:31;6.45;;;4.30;;
24163;SDS011;12319;49.204;8.116;2023-07-29T13:04:56;5.40;;;4.00;;
24163;SDS011;12319;49.204;8.116;2023-07-29T13:07:22;5.47;;;4.50;;
24163;SDS011;12319;49.204;8.116;2023-07-29T13:09:47;5.07;;;3.93;;
24163;SDS011;12319;49.204;8.116;2023-07-29T13:12:13;5.10;;;4.13;;
24163;SDS011;12319;49.204;8.116;2023-07-29T13:14:38;7.38;;;4.32;;
24163;SDS011;12319;49.204;8.116;2023-07-29T13:17:04;5.23;;;4.50;;
24163;SDS011;12319;49.204;8.116;2023-07-29T13:19:30;5.30;;;4.70;;
24163;SDS011;12319;49.204;8.116;2023-07-29T13:21:55;5.63;;;4.40;;
24163;SDS011;12319;49.204;8.116;2023-07-29T13:24:21;5.40;;;4.40;;
24163;SDS011;12319;49.204;8.116;2023-07-29T13:26:46;5.30;;;4.47;;
24163;SDS011;12319;49.204;8.116;2023-07-29T13:29:12;5.50;;;4.80;;
24163;SDS011;12319;49.204;8.116;2023-07-29T13:31:37;5.30;;;4.57;;
24163;SDS011;12319;49.204;8.116;2023-07-29T13:34:03;5.00;;;4.40;;
24163;SDS011;12319;49.204;8.116;2023-07-29T13:36:28;5.32;;;3.80;;
24163;SDS011;12319;49.204;8.116;2023-07-29T13:38:54;4.80;;;3.90;;
24163;SDS011;12319;49.204;8.116;2023-07-29T13:41:19;5.10;;;4.03;;
24163;SDS011;12319;49.204;8.116;2023-07-29T13:43:45;4.80;;;4.00;;
24163;SDS011;12319;49.204;8.116;2023-07-29T13:46:10;4.70;;;3.90;;
24163;SDS011;12319;49.204;8.116;2023-07-29T13:48:36;5.67;;;5.03;;
24163;SDS011;12319;49.204;8.116;2023-07-29T13:51:01;5.50;;;4.68;;
24163;SDS011;12319;49.204;8.116;2023-07-29T13:53:27;6.00;;;4.30;;
24163;SDS011;12319;49.204;8.116;2023-07-29T13:55:52;5.30;;;4.37;;
24163;SDS011;12319;49.204;8.116;2023-07-29T13:58:18;5.13;;;4.25;;
24163;SDS011;12319;49.204;8.116;2023-07-29T14:00:43;5.10;;;4.13;;
24163;SDS011;12319;49.204;8.116;2023-07-29T14:03:09;5.93;;;4.77;;
24163;SDS011;12319;49.204;8.116;2023-07-29T14:05:34;5.10;;;4.30;;
24163;SDS011;12319;49.204;8.116;2023-07-29T14:08:00;5.78;;;4.93;;
24163;SDS011;12319;49.204;8.116;2023-07-29T14:10:25;5.80;;;4.57;;
24163;SDS011;12319;49.204;8.116;2023-07-29T14:12:51;5.60;;;4.57;;
24163;SDS011;12319;49.204;8.116;2023-07-29T14:15:16;5.40;;;4.68;;
24163;SDS011;12319;49.204;8.116;2023-07-29T14:17:42;5.80;;;4.87;;
24163;SDS011;12319;49.204;8.116;2023-07-29T14:20:08;5.40;;;4.60;;
24163;SDS011;12319;49.204;8.116;2023-07-29T14:22:34;5.55;;;4.95;;
24163;SDS011;12319;49.204;8.116;2023-07-29T14:25:00;5.00;;;4.35;;
24163;SDS011;12319;49.204;8.116;2023-07-29T14:27:26;5.13;;;4.37;;
24163;SDS011;12319;49.204;8.116;2023-07-29T14:29:51;5.00;;;4.20;;
24163;SDS011;12319;49.204;8.116;2023-07-29T14:32:17;5.23;;;4.50;;
24163;SDS011;12319;49.204;8.116;2023-07-29T14:34:42;5.63;;;4.57;;
24163;SDS011;12319;49.204;8.116;2023-07-29T14:37:08;5.10;;;4.50;;
24163;SDS011;12319;49.204;8.116;2023-07-29T14:39:33;5.50;;;4.90;;
24163;SDS011;12319;49.204;8.116;2023-07-29T14:41:59;5.00;;;4.40;;
24163;SDS011;12319;49.204;8.116;2023-07-29T14:44:24;5.27;;;4.77;;
24163;SDS011;12319;49.204;8.116;2023-07-29T14:46:50;5.13;;;4.35;;
24163;SDS011;12319;49.204;8.116;2023-07-29T14:49:15;5.33;;;4.73;;
24163;SDS011;12319;49.204;8.116;2023-07-29T14:51:41;5.37;;;4.27;;
24163;SDS011;12319;49.204;8.116;2023-07-29T14:54:07;5.20;;;4.03;;
24163;SDS011;12319;49.204;8.116;2023-07-29T14:56:32;5.30;;;4.70;;
24163;SDS011;12319;49.204;8.116;2023-07-29T14:58:58;6.30;;;4.47;;
24163;SDS011;12319;49.204;8.116;2023-07-29T15:01:23;5.30;;;4.77;;